sensor_id;sensor_type;location;lat;lon;timestamp;temperature;humidity
63445;DHT22;49573;47.682;9.170;2022-09-02T00:02:29;15.10;78.30
63445;DHT22;49573;47.682;9.170;2022-09-02T00:05:16;15.10;77.80
63445;DHT22;49573;47.682;9.170;2022-09-02T00:08:03;15.10;78.00
63445;DHT22;49573;47.682;9.170;2022-09-02T00:10:49;15.00;78.10
63445;DHT22;49573;47.682;9.170;2022-09-02T00:13:36;15.00;78.50
63445;DHT22;49573;47.682;9.170;2022-09-02T00:16:24;14.90;78.50
63445;DHT22;49573;47.682;9.170;2022-09-02T00:19:10;14.90;78.80
63445;DHT22;49573;47.682;9.170;2022-09-02T00:21:57;14.90;78.30
63445;DHT22;49573;47.682;9.170;2022-09-02T00:24:44;14.90;78.30
63445;DHT22;49573;47.682;9.170;2022-09-02T00:27:30;14.80;78.20
63445;DHT22;49573;47.682;9.170;2022-09-02T00:30:16;14.80;78.50
63445;DHT22;49573;47.682;9.170;2022-09-02T00:33:04;14.80;78.40
63445;DHT22;49573;47.682;9.170;2022-09-02T00:35:51;14.80;78.80
63445;DHT22;49573;47.682;9.170;2022-09-02T00:38:37;14.70;78.80
63445;DHT22;49573;47.682;9.170;2022-09-02T00:41:26;14.70;78.90
63445;DHT22;49573;47.682;9.170;2022-09-02T00:44:15;14.70;78.80
63445;DHT22;49573;47.682;9.170;2022-09-02T00:47:01;14.70;78.70
63445;DHT22;49573;47.682;9.170;2022-09-02T00:49:51;14.70;78.60
63445;DHT22;49573;47.682;9.170;2022-09-02T00:52:41;14.60;79.00
63445;DHT22;49573;47.682;9.170;2022-09-02T00:55:30;14.60;79.20
63445;DHT22;49573;47.682;9.170;2022-09-02T00:58:21;14.50;78.70
63445;DHT22;49573;47.682;9.170;2022-09-02T01:01:09;14.60;78.60
63445;DHT22;49573;47.682;9.170;2022-09-02T01:03:56;14.50;79.00
63445;DHT22;49573;47.682;9.170;2022-09-02T01:06:44;14.50;79.10
63445;DHT22;49573;47.682;9.170;2022-09-02T01:09:30;14.50;79.40
63445;DHT22;49573;47.682;9.170;2022-09-02T01:12:18;14.40;79.40
63445;DHT22;49573;47.682;9.170;2022-09-02T01:15:06;14.40;79.50
63445;DHT22;49573;47.682;9.170;2022-09-02T01:17:53;14.40;79.40
63445;DHT22;49573;47.682;9.170;2022-09-02T01:20:40;14.40;79.40
63445;DHT22;49573;47.682;9.170;2022-09-02T01:23:29;14.40;79.50
63445;DHT22;49573;47.682;9.170;2022-09-02T01:26:16;14.30;79.50
63445;DHT22;49573;47.682;9.170;2022-09-02T01:29:02;14.30;79.50
63445;DHT22;49573;47.682;9.170;2022-09-02T01:31:49;14.30;79.70
63445;DHT22;49573;47.682;9.170;2022-09-02T01:34:35;14.30;79.60
63445;DHT22;49573;47.682;9.170;2022-09-02T01:37:21;14.20;79.80
63445;DHT22;49573;47.682;9.170;2022-09-02T01:40:13;14.20;79.90
63445;DHT22;49573;47.682;9.170;2022-09-02T01:43:02;14.20;79.70
63445;DHT22;49573;47.682;9.170;2022-09-02T01:45:51;14.10;79.80
63445;DHT22;49573;47.682;9.170;2022-09-02T01:48:37;14.10;80.20
63445;DHT22;49573;47.682;9.170;2022-09-02T01:51:23;14.00;80.10
63445;DHT22;49573;47.682;9.170;2022-09-02T01:54:09;14.00;80.50
63445;DHT22;49573;47.682;9.170;2022-09-02T01:56:56;14.10;80.30
63445;DHT22;49573;47.682;9.170;2022-09-02T01:59:42;14.10;80.50
63445;DHT22;49573;47.682;9.170;2022-09-02T02:02:30;14.00;80.40
63445;DHT22;49573;47.682;9.170;2022-09-02T02:05:17;14.00;80.50
63445;DHT22;49573;47.682;9.170;2022-09-02T02:08:04;14.00;80.60
63445;DHT22;49573;47.682;9.170;2022-09-02T02:10:51;14.00;80.10
63445;DHT22;49573;47.682;9.170;2022-09-02T02:13:38;13.90;80.80
63445;DHT22;49573;47.682;9.170;2022-09-02T02:16:24;13.90;80.30
63445;DHT22;49573;47.682;9.170;2022-09-02T02:19:11;13.90;80.80
63445;DHT22;49573;47.682;9.170;2022-09-02T02:21:57;13.80;81.20
63445;DHT22;49573;47.682;9.170;2022-09-02T02:24:43;13.80;81.20
63445;DHT22;49573;47.682;9.170;2022-09-02T02:27:29;13.80;81.30
63445;DHT22;49573;47.682;9.170;2022-09-02T02:30:17;13.80;81.30
63445;DHT22;49573;47.682;9.170;2022-09-02T02:33:03;13.70;81.30
63445;DHT22;49573;47.682;9.170;2022-09-02T02:35:50;13.70;81.60
63445;DHT22;49573;47.682;9.170;2022-09-02T02:38:37;13.70;81.20
63445;DHT22;49573;47.682;9.170;2022-09-02T02:41:24;13.70;81.40
63445;DHT22;49573;47.682;9.170;2022-09-02T02:44:11;13.70;81.60
63445;DHT22;49573;47.682;9.170;2022-09-02T02:46:58;13.70;81.70
63445;DHT22;49573;47.682;9.170;2022-09-02T02:49:45;13.80;81.50
63445;DHT22;49573;47.682;9.170;2022-09-02T02:52:31;13.70;81.40
63445;DHT22;49573;47.682;9.170;2022-09-02T02:55:17;13.80;81.10
63445;DHT22;49573;47.682;9.170;2022-09-02T02:58:03;13.70;81.10
63445;DHT22;49573;47.682;9.170;2022-09-02T03:00:49;13.70;81.10
63445;DHT22;49573;47.682;9.170;2022-09-02T03:03:37;13.60;81.20
63445;DHT22;49573;47.682;9.170;2022-09-02T03:06:23;13.60;81.10
63445;DHT22;49573;47.682;9.170;2022-09-02T03:09:09;13.70;81.00
63445;DHT22;49573;47.682;9.170;2022-09-02T03:11:55;13.60;81.20
63445;DHT22;49573;47.682;9.170;2022-09-02T03:14:42;13.70;80.90
63445;DHT22;49573;47.682;9.170;2022-09-02T03:17:29;13.60;80.50
63445;DHT22;49573;47.682;9.170;2022-09-02T03:20:17;13.50;81.30
63445;DHT22;49573;47.682;9.170;2022-09-02T03:23:03;13.50;80.70
63445;DHT22;49573;47.682;9.170;2022-09-02T03:25:49;13.40;81.20
63445;DHT22;49573;47.682;9.170;2022-09-02T03:28:35;13.40;81.10
63445;DHT22;49573;47.682;9.170;2022-09-02T03:31:23;13.40;81.30
63445;DHT22;49573;47.682;9.170;2022-09-02T03:34:10;13.30;81.20
63445;DHT22;49573;47.682;9.170;2022-09-02T03:36:58;13.30;81.40
63445;DHT22;49573;47.682;9.170;2022-09-02T03:39:44;13.30;81.40
63445;DHT22;49573;47.682;9.170;2022-09-02T03:42:30;13.30;81.60
63445;DHT22;49573;47.682;9.170;2022-09-02T03:45:16;13.30;81.50
63445;DHT22;49573;47.682;9.170;2022-09-02T03:48:03;13.30;81.50
63445;DHT22;49573;47.682;9.170;2022-09-02T03:50:49;13.30;81.50
63445;DHT22;49573;47.682;9.170;2022-09-02T03:53:37;13.20;81.20
63445;DHT22;49573;47.682;9.170;2022-09-02T03:56:24;13.20;81.40
63445;DHT22;49573;47.682;9.170;2022-09-02T03:59:10;13.10;81.20
63445;DHT22;49573;47.682;9.170;2022-09-02T04:01:56;13.20;81.30
63445;DHT22;49573;47.682;9.170;2022-09-02T04:04:42;13.10;81.40
63445;DHT22;49573;47.682;9.170;2022-09-02T04:07:28;13.10;81.60
63445;DHT22;49573;47.682;9.170;2022-09-02T04:10:15;13.10;81.50
63445;DHT22;49573;47.682;9.170;2022-09-02T04:13:01;13.00;81.60
63445;DHT22;49573;47.682;9.170;2022-09-02T04:15:47;13.00;81.40
63445;DHT22;49573;47.682;9.170;2022-09-02T04:18:34;13.00;81.70
63445;DHT22;49573;47.682;9.170;2022-09-02T04:21:20;12.90;81.90
63445;DHT22;49573;47.682;9.170;2022-09-02T04:24:08;12.90;81.80
63445;DHT22;49573;47.682;9.170;2022-09-02T04:26:55;12.90;81.80
63445;DHT22;49573;47.682;9.170;2022-09-02T04:29:41;12.90;81.80
63445;DHT22;49573;47.682;9.170;2022-09-02T04:32:27;12.80;81.80
63445;DHT22;49573;47.682;9.170;2022-09-02T04:35:13;12.80;81.80
63445;DHT22;49573;47.682;9.170;2022-09-02T04:38:00;12.80;81.90
63445;DHT22;49573;47.682;9.170;2022-09-02T04:40:47;12.80;81.60
63445;DHT22;49573;47.682;9.170;2022-09-02T04:43:35;12.80;82.10
63445;DHT22;49573;47.682;9.170;2022-09-02T04:46:21;12.70;82.40
63445;DHT22;49573;47.682;9.170;2022-09-02T04:49:07;12.80;82.00
63445;DHT22;49573;47.682;9.170;2022-09-02T04:51:53;12.80;82.10
63445;DHT22;49573;47.682;9.170;2022-09-02T04:54:39;12.80;82.00
63445;DHT22;49573;47.682;9.170;2022-09-02T04:57:25;12.70;82.20
63445;DHT22;49573;47.682;9.170;2022-09-02T05:00:13;12.80;82.20
63445;DHT22;49573;47.682;9.170;2022-09-02T05:02:59;12.70;82.70
63445;DHT22;49573;47.682;9.170;2022-09-02T05:05:46;12.70;82.40
63445;DHT22;49573;47.682;9.170;2022-09-02T05:08:33;12.70;82.50
63445;DHT22;49573;47.682;9.170;2022-09-02T05:11:24;12.80;82.30
63445;DHT22;49573;47.682;9.170;2022-09-02T05:14:13;12.80;82.50
63445;DHT22;49573;47.682;9.170;2022-09-02T05:17:02;12.70;82.60
63445;DHT22;49573;47.682;9.170;2022-09-02T05:19:49;12.70;82.70
63445;DHT22;49573;47.682;9.170;2022-09-02T05:22:35;12.70;82.70
63445;DHT22;49573;47.682;9.170;2022-09-02T05:25:21;12.80;82.60
63445;DHT22;49573;47.682;9.170;2022-09-02T05:28:08;12.80;82.80
63445;DHT22;49573;47.682;9.170;2022-09-02T05:30:54;12.80;82.50
63445;DHT22;49573;47.682;9.170;2022-09-02T05:33:41;12.80;82.60
63445;DHT22;49573;47.682;9.170;2022-09-02T05:36:27;12.90;82.60
63445;DHT22;49573;47.682;9.170;2022-09-02T05:39:14;13.00;82.20
63445;DHT22;49573;47.682;9.170;2022-09-02T05:42:00;13.00;82.30
63445;DHT22;49573;47.682;9.170;2022-09-02T05:44:46;12.90;82.50
63445;DHT22;49573;47.682;9.170;2022-09-02T05:47:33;13.00;82.50
63445;DHT22;49573;47.682;9.170;2022-09-02T05:50:20;13.10;82.40
63445;DHT22;49573;47.682;9.170;2022-09-02T05:53:06;13.10;82.50
63445;DHT22;49573;47.682;9.170;2022-09-02T05:55:52;13.10;82.30
63445;DHT22;49573;47.682;9.170;2022-09-02T05:58:38;13.20;82.30
63445;DHT22;49573;47.682;9.170;2022-09-02T06:01:25;13.30;82.30
63445;DHT22;49573;47.682;9.170;2022-09-02T06:04:11;13.30;82.30
63445;DHT22;49573;47.682;9.170;2022-09-02T06:06:58;13.30;82.20
63445;DHT22;49573;47.682;9.170;2022-09-02T06:09:45;13.40;81.90
63445;DHT22;49573;47.682;9.170;2022-09-02T06:12:31;13.50;81.70
63445;DHT22;49573;47.682;9.170;2022-09-02T06:15:18;13.60;81.40
63445;DHT22;49573;47.682;9.170;2022-09-02T06:18:04;13.80;80.90
63445;DHT22;49573;47.682;9.170;2022-09-02T06:20:50;13.80;81.30
63445;DHT22;49573;47.682;9.170;2022-09-02T06:23:38;13.90;81.30
63445;DHT22;49573;47.682;9.170;2022-09-02T06:26:25;14.00;80.00
63445;DHT22;49573;47.682;9.170;2022-09-02T06:29:12;14.20;80.50
63445;DHT22;49573;47.682;9.170;2022-09-02T06:31:58;14.30;79.30
63445;DHT22;49573;47.682;9.170;2022-09-02T06:34:44;14.40;79.10
63445;DHT22;49573;47.682;9.170;2022-09-02T06:37:30;14.50;79.40
63445;DHT22;49573;47.682;9.170;2022-09-02T06:40:18;14.60;78.70
63445;DHT22;49573;47.682;9.170;2022-09-02T06:43:04;14.70;78.90
63445;DHT22;49573;47.682;9.170;2022-09-02T06:45:50;14.80;78.30
63445;DHT22;49573;47.682;9.170;2022-09-02T06:48:36;14.90;78.00
63445;DHT22;49573;47.682;9.170;2022-09-02T06:51:24;15.00;76.70
63445;DHT22;49573;47.682;9.170;2022-09-02T06:54:12;15.10;77.10
63445;DHT22;49573;47.682;9.170;2022-09-02T06:56:59;15.20;77.20
63445;DHT22;49573;47.682;9.170;2022-09-02T06:59:46;15.30;76.50
63445;DHT22;49573;47.682;9.170;2022-09-02T07:02:32;15.30;76.10
63445;DHT22;49573;47.682;9.170;2022-09-02T07:05:18;15.50;75.90
63445;DHT22;49573;47.682;9.170;2022-09-02T07:08:05;15.70;75.40
63445;DHT22;49573;47.682;9.170;2022-09-02T07:10:51;15.70;74.80
63445;DHT22;49573;47.682;9.170;2022-09-02T07:13:38;15.80;74.80
63445;DHT22;49573;47.682;9.170;2022-09-02T07:16:24;15.80;74.50
63445;DHT22;49573;47.682;9.170;2022-09-02T07:19:11;16.00;73.90
63445;DHT22;49573;47.682;9.170;2022-09-02T07:21:58;16.00;73.60
63445;DHT22;49573;47.682;9.170;2022-09-02T07:24:44;16.00;73.70
63445;DHT22;49573;47.682;9.170;2022-09-02T07:27:30;16.20;73.80
63445;DHT22;49573;47.682;9.170;2022-09-02T07:30:18;16.10;73.00
63445;DHT22;49573;47.682;9.170;2022-09-02T07:33:04;16.30;73.90
63445;DHT22;49573;47.682;9.170;2022-09-02T07:35:50;16.40;73.10
63445;DHT22;49573;47.682;9.170;2022-09-02T07:38:38;16.50;72.60
63445;DHT22;49573;47.682;9.170;2022-09-02T07:41:25;16.60;72.10
63445;DHT22;49573;47.682;9.170;2022-09-02T07:44:12;16.60;72.20
63445;DHT22;49573;47.682;9.170;2022-09-02T07:47:00;16.80;72.70
63445;DHT22;49573;47.682;9.170;2022-09-02T07:49:46;16.90;72.40
63445;DHT22;49573;47.682;9.170;2022-09-02T07:52:32;16.80;70.40
63445;DHT22;49573;47.682;9.170;2022-09-02T07:55:18;17.00;71.70
63445;DHT22;49573;47.682;9.170;2022-09-02T07:58:04;17.20;70.70
63445;DHT22;49573;47.682;9.170;2022-09-02T08:00:51;17.10;69.30
63445;DHT22;49573;47.682;9.170;2022-09-02T08:03:39;17.20;70.30
63445;DHT22;49573;47.682;9.170;2022-09-02T08:06:26;17.30;70.70
63445;DHT22;49573;47.682;9.170;2022-09-02T08:09:13;17.40;71.00
63445;DHT22;49573;47.682;9.170;2022-09-02T08:12:00;17.40;69.20
63445;DHT22;49573;47.682;9.170;2022-09-02T08:14:46;17.40;69.20
63445;DHT22;49573;47.682;9.170;2022-09-02T08:17:32;17.40;69.00
63445;DHT22;49573;47.682;9.170;2022-09-02T08:20:20;17.60;68.90
63445;DHT22;49573;47.682;9.170;2022-09-02T08:23:06;17.80;69.20
63445;DHT22;49573;47.682;9.170;2022-09-02T08:25:52;18.00;69.50
63445;DHT22;49573;47.682;9.170;2022-09-02T08:28:38;18.10;68.20
63445;DHT22;49573;47.682;9.170;2022-09-02T08:31:25;18.20;68.80
63445;DHT22;49573;47.682;9.170;2022-09-02T08:34:11;18.30;68.00
63445;DHT22;49573;47.682;9.170;2022-09-02T08:36:58;18.00;66.90
63445;DHT22;49573;47.682;9.170;2022-09-02T08:39:44;18.30;67.60
63445;DHT22;49573;47.682;9.170;2022-09-02T08:42:31;18.30;67.10
63445;DHT22;49573;47.682;9.170;2022-09-02T08:45:21;18.20;66.30
63445;DHT22;49573;47.682;9.170;2022-09-02T08:48:13;18.50;67.10
63445;DHT22;49573;47.682;9.170;2022-09-02T08:51:04;18.80;67.30
63445;DHT22;49573;47.682;9.170;2022-09-02T08:53:56;19.00;65.60
63445;DHT22;49573;47.682;9.170;2022-09-02T08:56:43;19.00;65.00
63445;DHT22;49573;47.682;9.170;2022-09-02T08:59:30;19.20;66.20
63445;DHT22;49573;47.682;9.170;2022-09-02T09:02:22;19.20;63.90
63445;DHT22;49573;47.682;9.170;2022-09-02T09:05:16;18.90;63.90
63445;DHT22;49573;47.682;9.170;2022-09-02T09:08:11;19.00;64.10
63445;DHT22;49573;47.682;9.170;2022-09-02T09:11:03;19.10;65.10
63445;DHT22;49573;47.682;9.170;2022-09-02T09:14:01;19.50;64.50
63445;DHT22;49573;47.682;9.170;2022-09-02T09:16:54;19.30;61.90
63445;DHT22;49573;47.682;9.170;2022-09-02T09:19:47;19.30;63.10
63445;DHT22;49573;47.682;9.170;2022-09-02T09:22:36;19.30;63.20
63445;DHT22;49573;47.682;9.170;2022-09-02T09:25:24;19.80;64.90
63445;DHT22;49573;47.682;9.170;2022-09-02T09:28:16;20.10;64.00
63445;DHT22;49573;47.682;9.170;2022-09-02T09:31:02;20.30;62.80
63445;DHT22;49573;47.682;9.170;2022-09-02T09:33:55;20.20;61.50
63445;DHT22;49573;47.682;9.170;2022-09-02T09:36:47;20.50;62.60
63445;DHT22;49573;47.682;9.170;2022-09-02T09:39:33;20.80;61.90
63445;DHT22;49573;47.682;9.170;2022-09-02T09:42:30;20.80;60.90
63445;DHT22;49573;47.682;9.170;2022-09-02T09:45:19;20.80;60.00
63445;DHT22;49573;47.682;9.170;2022-09-02T09:48:16;21.20;61.40
63445;DHT22;49573;47.682;9.170;2022-09-02T09:51:13;21.30;59.10
63445;DHT22;49573;47.682;9.170;2022-09-02T09:54:14;21.00;60.00
63445;DHT22;49573;47.682;9.170;2022-09-02T09:57:15;21.40;60.30
63445;DHT22;49573;47.682;9.170;2022-09-02T10:00:11;21.60;60.00
63445;DHT22;49573;47.682;9.170;2022-09-02T10:03:02;21.80;59.90
63445;DHT22;49573;47.682;9.170;2022-09-02T10:05:53;22.00;58.20
63445;DHT22;49573;47.682;9.170;2022-09-02T10:08:49;22.10;58.90
63445;DHT22;49573;47.682;9.170;2022-09-02T10:11:36;21.70;58.90
63445;DHT22;49573;47.682;9.170;2022-09-02T10:14:23;22.20;60.90
63445;DHT22;49573;47.682;9.170;2022-09-02T10:17:32;22.50;59.40
63445;DHT22;49573;47.682;9.170;2022-09-02T10:20:29;22.60;57.70
63445;DHT22;49573;47.682;9.170;2022-09-02T10:23:23;22.60;58.10
63445;DHT22;49573;47.682;9.170;2022-09-02T10:26:22;22.90;58.30
63445;DHT22;49573;47.682;9.170;2022-09-02T10:32:47;23.30;56.40
63445;DHT22;49573;47.682;9.170;2022-09-02T10:35:42;23.50;56.00
63445;DHT22;49573;47.682;9.170;2022-09-02T10:38:34;23.30;57.90
63445;DHT22;49573;47.682;9.170;2022-09-02T10:41:32;23.20;54.30
63445;DHT22;49573;47.682;9.170;2022-09-02T10:44:27;23.30;55.10
63445;DHT22;49573;47.682;9.170;2022-09-02T10:47:20;23.80;55.60
63445;DHT22;49573;47.682;9.170;2022-09-02T10:50:15;24.10;53.50
63445;DHT22;49573;47.682;9.170;2022-09-02T10:53:19;24.10;55.10
63445;DHT22;49573;47.682;9.170;2022-09-02T10:56:13;24.40;54.10
63445;DHT22;49573;47.682;9.170;2022-09-02T10:59:06;24.40;52.80
63445;DHT22;49573;47.682;9.170;2022-09-02T11:01:56;24.40;53.40
63445;DHT22;49573;47.682;9.170;2022-09-02T11:04:46;24.40;52.30
63445;DHT22;49573;47.682;9.170;2022-09-02T11:07:40;24.80;53.70
63445;DHT22;49573;47.682;9.170;2022-09-02T11:10:31;24.90;52.90
63445;DHT22;49573;47.682;9.170;2022-09-02T11:13:25;25.40;50.70
63445;DHT22;49573;47.682;9.170;2022-09-02T11:16:18;25.40;50.70
63445;DHT22;49573;47.682;9.170;2022-09-02T11:19:10;25.30;52.50
63445;DHT22;49573;47.682;9.170;2022-09-02T11:22:03;25.60;50.30
63445;DHT22;49573;47.682;9.170;2022-09-02T11:24:55;26.10;50.30
63445;DHT22;49573;47.682;9.170;2022-09-02T11:27:47;25.30;50.20
63445;DHT22;49573;47.682;9.170;2022-09-02T11:30:43;25.50;50.40
63445;DHT22;49573;47.682;9.170;2022-09-02T11:33:42;25.30;51.80
63445;DHT22;49573;47.682;9.170;2022-09-02T11:36:36;25.70;49.20
63445;DHT22;49573;47.682;9.170;2022-09-02T11:39:30;25.80;50.00
63445;DHT22;49573;47.682;9.170;2022-09-02T11:42:30;26.00;48.90
63445;DHT22;49573;47.682;9.170;2022-09-02T11:45:43;26.30;50.20
63445;DHT22;49573;47.682;9.170;2022-09-02T11:49:06;26.90;50.00
63445;DHT22;49573;47.682;9.170;2022-09-02T11:52:02;27.50;48.60
63445;DHT22;49573;47.682;9.170;2022-09-02T11:54:59;27.30;47.30
63445;DHT22;49573;47.682;9.170;2022-09-02T11:57:51;27.60;46.80
63445;DHT22;49573;47.682;9.170;2022-09-02T12:01:03;27.10;44.70
63445;DHT22;49573;47.682;9.170;2022-09-02T12:03:54;27.10;47.30
63445;DHT22;49573;47.682;9.170;2022-09-02T12:07:23;27.60;47.10
63445;DHT22;49573;47.682;9.170;2022-09-02T12:10:09;28.30;44.80
63445;DHT22;49573;47.682;9.170;2022-09-02T12:13:34;27.60;44.50
63445;DHT22;49573;47.682;9.170;2022-09-02T12:16:35;28.10;46.00
63445;DHT22;49573;47.682;9.170;2022-09-02T12:19:28;28.60;45.10
63445;DHT22;49573;47.682;9.170;2022-09-02T12:22:24;28.80;44.60
63445;DHT22;49573;47.682;9.170;2022-09-02T12:25:33;28.60;45.10
63445;DHT22;49573;47.682;9.170;2022-09-02T12:28:24;29.10;43.50
63445;DHT22;49573;47.682;9.170;2022-09-02T12:31:36;29.30;44.60
63445;DHT22;49573;47.682;9.170;2022-09-02T12:34:51;29.90;43.40
63445;DHT22;49573;47.682;9.170;2022-09-02T12:37:55;30.20;42.90
63445;DHT22;49573;47.682;9.170;2022-09-02T12:40:52;30.50;42.50
63445;DHT22;49573;47.682;9.170;2022-09-02T12:43:51;30.90;42.20
63445;DHT22;49573;47.682;9.170;2022-09-02T12:49:58;30.80;40.20
63445;DHT22;49573;47.682;9.170;2022-09-02T12:52:47;30.70;40.10
63445;DHT22;49573;47.682;9.170;2022-09-02T12:55:33;30.80;40.80
63445;DHT22;49573;47.682;9.170;2022-09-02T12:58:21;31.60;40.40
63445;DHT22;49573;47.682;9.170;2022-09-02T13:01:17;31.90;39.40
63445;DHT22;49573;47.682;9.170;2022-09-02T13:04:23;31.40;39.60
63445;DHT22;49573;47.682;9.170;2022-09-02T13:10:50;31.20;39.90
63445;DHT22;49573;47.682;9.170;2022-09-02T13:14:18;31.20;40.30
63445;DHT22;49573;47.682;9.170;2022-09-02T13:17:20;31.10;40.20
63445;DHT22;49573;47.682;9.170;2022-09-02T13:23:57;31.60;38.90
63445;DHT22;49573;47.682;9.170;2022-09-02T13:27:13;31.70;38.00
63445;DHT22;49573;47.682;9.170;2022-09-02T13:30:09;32.00;37.90
63445;DHT22;49573;47.682;9.170;2022-09-02T13:33:03;32.40;37.60
63445;DHT22;49573;47.682;9.170;2022-09-02T13:35:53;32.90;37.30
63445;DHT22;49573;47.682;9.170;2022-09-02T13:38:41;32.80;36.40
63445;DHT22;49573;47.682;9.170;2022-09-02T13:41:31;32.50;36.90
63445;DHT22;49573;47.682;9.170;2022-09-02T13:44:20;32.90;36.90
63445;DHT22;49573;47.682;9.170;2022-09-02T13:47:13;32.10;37.50
63445;DHT22;49573;47.682;9.170;2022-09-02T13:50:01;32.10;37.80
63445;DHT22;49573;47.682;9.170;2022-09-02T13:52:47;32.20;37.80
63445;DHT22;49573;47.682;9.170;2022-09-02T13:55:37;32.30;37.40
63445;DHT22;49573;47.682;9.170;2022-09-02T13:58:33;32.40;38.50
63445;DHT22;49573;47.682;9.170;2022-09-02T14:01:22;33.40;37.00
63445;DHT22;49573;47.682;9.170;2022-09-02T14:04:11;34.10;37.20
63445;DHT22;49573;47.682;9.170;2022-09-02T14:06:59;33.70;35.60
63445;DHT22;49573;47.682;9.170;2022-09-02T14:09:45;34.20;36.20
63445;DHT22;49573;47.682;9.170;2022-09-02T14:12:35;34.40;34.60
63445;DHT22;49573;47.682;9.170;2022-09-02T14:15:24;33.90;35.60
63445;DHT22;49573;47.682;9.170;2022-09-02T14:18:15;33.60;35.80
63445;DHT22;49573;47.682;9.170;2022-09-02T14:21:13;33.50;35.80
63445;DHT22;49573;47.682;9.170;2022-09-02T14:24:02;34.20;36.10
63445;DHT22;49573;47.682;9.170;2022-09-02T14:26:50;33.00;36.60
63445;DHT22;49573;47.682;9.170;2022-09-02T14:29:42;32.60;36.20
63445;DHT22;49573;47.682;9.170;2022-09-02T14:32:29;33.30;36.70
63445;DHT22;49573;47.682;9.170;2022-09-02T14:35:21;33.00;35.90
63445;DHT22;49573;47.682;9.170;2022-09-02T14:38:21;32.30;36.00
63445;DHT22;49573;47.682;9.170;2022-09-02T14:41:10;31.80;38.00
63445;DHT22;49573;47.682;9.170;2022-09-02T14:43:59;32.00;37.00
63445;DHT22;49573;47.682;9.170;2022-09-02T14:46:55;31.40;37.10
63445;DHT22;49573;47.682;9.170;2022-09-02T14:49:46;31.10;38.60
63445;DHT22;49573;47.682;9.170;2022-09-02T14:52:33;31.50;38.10
63445;DHT22;49573;47.682;9.170;2022-09-02T14:55:42;31.50;38.00
63445;DHT22;49573;47.682;9.170;2022-09-02T14:58:29;31.10;38.10
63445;DHT22;49573;47.682;9.170;2022-09-02T15:01:15;30.90;38.20
63445;DHT22;49573;47.682;9.170;2022-09-02T15:04:02;31.20;39.20
63445;DHT22;49573;47.682;9.170;2022-09-02T15:06:49;31.40;39.50
63445;DHT22;49573;47.682;9.170;2022-09-02T15:09:36;30.80;37.80
63445;DHT22;49573;47.682;9.170;2022-09-02T15:12:25;30.20;38.80
63445;DHT22;49573;47.682;9.170;2022-09-02T15:15:14;30.60;39.40
63445;DHT22;49573;47.682;9.170;2022-09-02T15:18:00;30.40;38.60
63445;DHT22;49573;47.682;9.170;2022-09-02T15:20:49;30.80;38.20
63445;DHT22;49573;47.682;9.170;2022-09-02T15:23:35;31.50;37.90
63445;DHT22;49573;47.682;9.170;2022-09-02T15:26:24;30.90;38.60
63445;DHT22;49573;47.682;9.170;2022-09-02T15:29:10;31.10;38.90
63445;DHT22;49573;47.682;9.170;2022-09-02T15:31:56;31.00;39.30
63445;DHT22;49573;47.682;9.170;2022-09-02T15:34:42;30.60;38.50
63445;DHT22;49573;47.682;9.170;2022-09-02T15:37:29;29.80;39.40
63445;DHT22;49573;47.682;9.170;2022-09-02T15:40:15;29.20;41.10
63445;DHT22;49573;47.682;9.170;2022-09-02T15:43:01;29.00;42.50
63445;DHT22;49573;47.682;9.170;2022-09-02T15:45:48;28.80;44.80
63445;DHT22;49573;47.682;9.170;2022-09-02T15:48:34;28.50;45.70
63445;DHT22;49573;47.682;9.170;2022-09-02T15:51:23;28.30;46.40
63445;DHT22;49573;47.682;9.170;2022-09-02T15:54:12;28.00;47.10
63445;DHT22;49573;47.682;9.170;2022-09-02T15:56:59;27.80;47.90
63445;DHT22;49573;47.682;9.170;2022-09-02T15:59:45;27.60;48.40
63445;DHT22;49573;47.682;9.170;2022-09-02T16:02:32;27.40;48.60
63445;DHT22;49573;47.682;9.170;2022-09-02T16:05:18;27.20;49.00
63445;DHT22;49573;47.682;9.170;2022-09-02T16:08:04;27.10;49.90
63445;DHT22;49573;47.682;9.170;2022-09-02T16:10:52;26.80;50.40
63445;DHT22;49573;47.682;9.170;2022-09-02T16:13:38;26.80;50.70
63445;DHT22;49573;47.682;9.170;2022-09-02T16:16:24;26.50;51.40
63445;DHT22;49573;47.682;9.170;2022-09-02T16:19:10;26.30;51.70
63445;DHT22;49573;47.682;9.170;2022-09-02T16:21:57;26.30;52.30
63445;DHT22;49573;47.682;9.170;2022-09-02T16:24:43;26.10;52.30
63445;DHT22;49573;47.682;9.170;2022-09-02T16:27:30;25.90;52.80
63445;DHT22;49573;47.682;9.170;2022-09-02T16:30:35;25.80;53.60
63445;DHT22;49573;47.682;9.170;2022-09-02T16:33:21;25.70;53.70
63445;DHT22;49573;47.682;9.170;2022-09-02T16:36:07;25.50;54.50
63445;DHT22;49573;47.682;9.170;2022-09-02T16:38:53;25.40;55.00
63445;DHT22;49573;47.682;9.170;2022-09-02T16:41:40;25.30;56.00
63445;DHT22;49573;47.682;9.170;2022-09-02T16:44:29;25.20;56.20
63445;DHT22;49573;47.682;9.170;2022-09-02T16:47:18;25.00;56.40
63445;DHT22;49573;47.682;9.170;2022-09-02T16:50:05;24.90;56.80
63445;DHT22;49573;47.682;9.170;2022-09-02T16:52:51;24.80;56.60
63445;DHT22;49573;47.682;9.170;2022-09-02T16:55:40;24.60;56.40
63445;DHT22;49573;47.682;9.170;2022-09-02T16:58:28;24.40;56.40
63445;DHT22;49573;47.682;9.170;2022-09-02T17:01:16;24.40;56.90
63445;DHT22;49573;47.682;9.170;2022-09-02T17:04:03;24.30;57.60
63445;DHT22;49573;47.682;9.170;2022-09-02T17:06:49;24.20;58.10
63445;DHT22;49573;47.682;9.170;2022-09-02T17:09:35;24.10;58.80
63445;DHT22;49573;47.682;9.170;2022-09-02T17:12:21;24.00;59.00
63445;DHT22;49573;47.682;9.170;2022-09-02T17:15:08;24.00;59.20
63445;DHT22;49573;47.682;9.170;2022-09-02T17:17:55;23.80;60.40
63445;DHT22;49573;47.682;9.170;2022-09-02T17:20:41;23.70;60.30
63445;DHT22;49573;47.682;9.170;2022-09-02T17:23:27;23.50;61.60
63445;DHT22;49573;47.682;9.170;2022-09-02T17:26:14;23.40;62.20
63445;DHT22;49573;47.682;9.170;2022-09-02T17:29:06;23.30;62.00
63445;DHT22;49573;47.682;9.170;2022-09-02T17:31:52;23.30;62.70
63445;DHT22;49573;47.682;9.170;2022-09-02T17:34:40;23.20;62.90
63445;DHT22;49573;47.682;9.170;2022-09-02T17:37:26;23.10;63.20
63445;DHT22;49573;47.682;9.170;2022-09-02T17:40:12;23.00;63.60
63445;DHT22;49573;47.682;9.170;2022-09-02T17:43:18;23.00;64.20
63445;DHT22;49573;47.682;9.170;2022-09-02T17:46:05;22.90;64.30
63445;DHT22;49573;47.682;9.170;2022-09-02T17:48:51;22.90;64.30
63445;DHT22;49573;47.682;9.170;2022-09-02T17:51:39;22.80;64.50
63445;DHT22;49573;47.682;9.170;2022-09-02T17:54:26;22.70;65.10
63445;DHT22;49573;47.682;9.170;2022-09-02T17:57:32;22.70;65.60
63445;DHT22;49573;47.682;9.170;2022-09-02T18:00:21;22.60;65.70
63445;DHT22;49573;47.682;9.170;2022-09-02T18:03:20;22.40;66.60
63445;DHT22;49573;47.682;9.170;2022-09-02T18:06:14;22.40;66.90